Time;durP1;ratioP1;P1;durP2;ratioP2;P2;SDS_P1;SDS_P2;PMS_P1;PMS_P2;Temp;Humidity;BMP_temperature;BMP_pressure;BME280_temperature;BME280_humidity;BME280_pressure;Samples;Min_cycle;Max_cycle;Signal;HPM_P1;HPM_P2
2021/08/22 00:01:28;;;;;;;5.80;4.70;;;20.00;71.40;;;;;;4972357;28;20148;-64
2021/08/22 00:03:54;;;;;;;8.23;4.47;;;20.00;71.30;;;;;;4973895;28;20038;-64
2021/08/22 00:06:20;;;;;;;5.55;4.82;;;20.00;71.30;;;;;;4984479;28;20069;-64
2021/08/22 00:08:46;;;;;;;5.18;4.47;;;20.00;72.10;;;;;;4975605;28;20173;-63
2021/08/22 00:11:12;;;;;;;6.30;4.63;;;19.90;71.40;;;;;;4966077;28;20038;-63
2021/08/22 00:13:38;;;;;;;7.05;4.97;;;20.00;71.50;;;;;;4981228;28;20049;-64
2021/08/22 00:16:04;;;;;;;7.00;5.07;;;19.90;71.40;;;;;;4976433;28;20039;-64
2021/08/22 00:18:30;;;;;;;5.80;4.65;;;19.90;71.60;;;;;;4971206;28;20043;-64
2021/08/22 00:20:56;;;;;;;5.60;5.00;;;19.90;71.60;;;;;;4969669;28;20133;-63
2021/08/22 00:23:22;;;;;;;7.57;5.57;;;19.90;71.80;;;;;;4980889;28;20110;-64
2021/08/22 00:25:48;;;;;;;7.47;5.70;;;19.80;71.70;;;;;;4974256;28;20042;-63
2021/08/22 00:28:13;;;;;;;6.10;5.50;;;19.80;71.80;;;;;;4975957;28;20038;-63
2021/08/22 00:30:39;;;;;;;8.05;5.75;;;19.70;72.20;;;;;;4972204;28;20106;-64
2021/08/22 00:33:05;;;;;;;7.07;5.22;;;19.70;72.50;;;;;;4973151;28;20057;-63
2021/08/22 00:35:30;;;;;;;6.53;5.40;;;19.60;72.60;;;;;;4980082;28;20042;-63
2021/08/22 00:37:56;;;;;;;8.25;5.57;;;19.60;72.60;;;;;;4981209;28;20111;-63
2021/08/22 00:40:23;;;;;;;7.35;5.45;;;19.60;72.60;;;;;;4973332;28;20041;-63
2021/08/22 00:42:48;;;;;;;6.50;5.57;;;19.70;73.00;;;;;;4977145;28;20040;-63
2021/08/22 00:45:16;;;;;;;6.90;5.70;;;19.70;73.00;;;;;;4977227;28;20038;-63
2021/08/22 00:47:43;;;;;;;8.73;5.72;;;19.70;73.20;;;;;;4977139;28;20047;-64
2021/08/22 00:50:17;;;;;;;6.60;5.47;;;19.70;73.40;;;;;;4973738;28;20042;-64
2021/08/22 00:52:43;;;;;;;9.52;5.78;;;19.80;74.00;;;;;;4971144;28;21045;-63
2021/08/22 00:55:09;;;;;;;8.15;5.90;;;19.80;73.90;;;;;;4985874;28;20045;-64
2021/08/22 00:57:35;;;;;;;6.72;5.80;;;19.80;74.00;;;;;;4987785;28;20049;-63
2021/08/22 01:00:09;;;;;;;8.30;6.10;;;19.90;74.20;;;;;;4989215;28;20044;-63
2021/08/22 01:02:42;;;;;;;9.30;6.70;;;19.90;74.80;;;;;;4967632;28;21879;-63
2021/08/22 01:05:36;;;;;;;7.30;5.82;;;19.80;74.20;;;;;;4978581;28;20112;-63
2021/08/22 01:08:14;;;;;;;6.30;5.68;;;19.80;74.30;;;;;;4972292;28;20034;-63
2021/08/22 01:10:43;;;;;;;5.63;5.13;;;19.80;74.40;;;;;;4971388;28;20038;-63
2021/08/22 01:13:13;;;;;;;7.72;5.53;;;19.80;74.60;;;;;;4978428;28;20057;-63
2021/08/22 01:15:42;;;;;;;6.45;5.45;;;19.80;74.60;;;;;;4988145;28;20039;-64
2021/08/22 01:18:15;;;;;;;6.75;5.75;;;19.90;74.60;;;;;;4977614;28;20163;-63
2021/08/22 01:20:55;;;;;;;6.30;5.70;;;19.90;74.80;;;;;;4975686;28;20502;-64
2021/08/22 01:23:23;;;;;;;6.50;5.53;;;20.00;74.90;;;;;;4979205;28;20046;-63
2021/08/22 01:25:50;;;;;;;7.47;5.55;;;20.00;74.40;;;;;;4966030;28;20038;-63
2021/08/22 01:28:17;;;;;;;6.25;5.43;;;20.10;74.60;;;;;;4972158;28;20042;-63
2021/08/22 01:30:49;;;;;;;7.50;5.63;;;20.10;74.60;;;;;;4970040;28;20039;-63
2021/08/22 01:33:17;;;;;;;7.15;6.03;;;20.20;74.90;;;;;;4968983;28;20062;-63
2021/08/22 01:35:44;;;;;;;6.93;6.05;;;20.20;74.60;;;;;;4978573;28;20046;-64
2021/08/22 01:38:10;;;;;;;7.03;5.70;;;20.20;74.50;;;;;;4977437;28;20120;-63
2021/08/22 01:40:37;;;;;;;6.65;5.13;;;20.30;75.20;;;;;;4969739;28;20114;-63
2021/08/22 01:43:04;;;;;;;6.85;5.18;;;20.30;74.30;;;;;;4976691;28;20034;-63
2021/08/22 01:45:32;;;;;;;5.82;5.10;;;20.30;74.10;;;;;;4979842;28;20882;-63
2021/08/22 01:47:59;;;;;;;8.43;5.72;;;20.30;73.90;;;;;;4986610;28;20122;-64
2021/08/22 01:50:25;;;;;;;6.15;5.13;;;20.30;73.90;;;;;;4982271;28;20414;-63
2021/08/22 01:52:56;;;;;;;5.82;5.25;;;20.40;74.00;;;;;;4984794;28;20042;-63
2021/08/22 01:55:21;;;;;;;6.22;5.47;;;20.40;73.90;;;;;;4973718;28;20082;-63
2021/08/22 01:57:47;;;;;;;5.40;4.60;;;20.30;73.60;;;;;;4969799;28;20130;-63
2021/08/22 02:00:14;;;;;;;5.35;4.20;;;20.40;73.50;;;;;;4969121;28;20577;-63
2021/08/22 02:02:56;;;;;;;6.00;4.25;;;20.40;73.10;;;;;;4977123;28;20037;-63
2021/08/22 02:05:23;;;;;;;4.55;3.67;;;20.40;73.20;;;;;;4980746;28;20631;-63
2021/08/22 02:07:49;;;;;;;4.70;4.20;;;20.40;73.00;;;;;;4980277;28;20041;-63
2021/08/22 02:10:23;;;;;;;5.03;3.95;;;20.40;73.10;;;;;;4981865;28;20042;-63
2021/08/22 02:12:50;;;;;;;4.30;3.63;;;20.40;73.40;;;;;;4975749;28;20035;-63
2021/08/22 02:15:22;;;;;;;6.07;4.13;;;20.40;73.20;;;;;;4977058;28;20043;-63
2021/08/22 02:17:53;;;;;;;5.30;3.92;;;20.50;73.70;;;;;;4984483;28;21003;-62
2021/08/22 02:20:20;;;;;;;7.20;3.80;;;20.40;73.50;;;;;;4967827;28;20150;-63
2021/08/22 02:22:46;;;;;;;4.13;3.72;;;20.50;73.80;;;;;;4984876;28;20031;-63
2021/08/22 02:25:13;;;;;;;5.32;3.63;;;20.40;73.90;;;;;;4978761;28;20045;-63
2021/08/22 02:27:41;;;;;;;4.22;3.85;;;20.50;74.00;;;;;;4974613;28;20129;-62
2021/08/22 02:30:08;;;;;;;6.00;3.90;;;20.50;74.60;;;;;;4971978;28;20101;-62
2021/08/22 02:32:33;;;;;;;4.20;3.80;;;20.50;74.60;;;;;;4971708;28;20066;-63
2021/08/22 02:35:00;;;;;;;5.03;4.53;;;20.50;74.60;;;;;;4973630;28;20540;-63
2021/08/22 02:37:25;;;;;;;5.07;3.63;;;20.50;74.60;;;;;;4978459;28;20333;-63
2021/08/22 02:39:51;;;;;;;6.57;3.80;;;20.50;75.50;;;;;;4973808;28;20026;-63
2021/08/22 02:42:17;;;;;;;4.60;4.20;;;20.50;74.40;;;;;;4983674;28;20553;-62
2021/08/22 02:44:44;;;;;;;4.45;4.05;;;20.60;74.70;;;;;;4981335;28;20564;-63
2021/08/22 02:47:10;;;;;;;5.38;4.40;;;20.50;74.90;;;;;;4983532;28;20540;-63
2021/08/22 02:49:37;;;;;;;4.28;3.88;;;20.50;74.90;;;;;;4981613;28;20039;-63
2021/08/22 02:52:03;;;;;;;5.13;3.90;;;20.50;75.10;;;;;;4981859;28;20069;-63
2021/08/22 02:54:29;;;;;;;4.05;3.70;;;20.50;75.30;;;;;;4978747;28;20057;-62
2021/08/22 02:56:55;;;;;;;4.07;3.67;;;20.50;75.10;;;;;;4973237;28;20031;-63
2021/08/22 02:59:20;;;;;;;5.30;3.55;;;20.50;75.30;;;;;;4969642;28;20475;-63
2021/08/22 03:01:46;;;;;;;5.32;3.83;;;20.50;75.00;;;;;;4968983;28;20911;-63
2021/08/22 03:04:12;;;;;;;4.35;3.55;;;20.50;75.00;;;;;;4976096;28;20070;-63
2021/08/22 03:06:37;;;;;;;3.85;3.50;;;20.50;75.00;;;;;;4968259;28;20134;-63
2021/08/22 03:09:03;;;;;;;4.38;3.97;;;20.50;75.00;;;;;;4967790;28;20049;-63
2021/08/22 03:11:32;;;;;;;3.80;3.50;;;20.50;75.00;;;;;;4970638;28;20690;-63
2021/08/22 03:13:58;;;;;;;6.03;4.25;;;20.40;74.90;;;;;;4976920;28;20034;-63
2021/08/22 03:16:24;;;;;;;4.38;3.97;;;20.40;75.90;;;;;;4976023;28;20081;-63
2021/08/22 03:18:50;;;;;;;7.18;4.82;;;20.40;75.00;;;;;;4971839;28;20034;-63
2021/08/22 03:21:16;;;;;;;5.95;4.57;;;20.40;75.20;;;;;;4970560;28;20130;-63
2021/08/22 03:23:41;;;;;;;5.85;4.57;;;20.30;75.20;;;;;;4983496;28;20723;-63
2021/08/22 03:26:07;;;;;;;7.65;4.57;;;20.20;76.20;;;;;;4979599;28;20763;-63
2021/08/22 03:28:33;;;;;;;4.93;4.32;;;20.20;75.40;;;;;;4974257;28;20058;-63
2021/08/22 03:30:59;;;;;;;5.85;4.38;;;20.20;75.40;;;;;;4974827;28;20042;-63
2021/08/22 03:33:25;;;;;;;4.93;4.38;;;20.20;75.60;;;;;;4985502;28;20050;-63
2021/08/22 03:35:51;;;;;;;5.53;4.68;;;20.10;75.80;;;;;;4979453;28;20061;-63
2021/08/22 03:38:16;;;;;;;5.10;4.00;;;20.10;75.80;;;;;;4979999;28;20054;-63
2021/08/22 03:40:42;;;;;;;5.45;4.38;;;20.10;75.80;;;;;;4979355;28;20069;-63
2021/08/22 03:43:08;;;;;;;4.80;4.30;;;20.10;75.80;;;;;;4973340;28;20085;-63
2021/08/22 03:45:33;;;;;;;6.82;4.82;;;20.10;75.90;;;;;;4981315;28;20038;-63
2021/08/22 03:47:59;;;;;;;4.75;4.28;;;20.10;76.00;;;;;;4971554;28;20518;-63
2021/08/22 03:50:24;;;;;;;5.72;4.30;;;20.10;76.00;;;;;;4983616;28;20042;-63
2021/08/22 03:52:52;;;;;;;4.35;3.92;;;20.10;76.00;;;;;;4978967;28;20219;-63
2021/08/22 03:55:19;;;;;;;5.82;4.20;;;20.10;75.90;;;;;;4978930;28;20031;-63
2021/08/22 03:57:45;;;;;;;4.90;4.40;;;20.10;76.00;;;;;;4991310;28;20685;-63
2021/08/22 04:00:11;;;;;;;7.10;4.60;;;20.10;76.00;;;;;;4989342;28;20068;-63
2021/08/22 04:02:37;;;;;;;5.18;4.32;;;20.10;75.90;;;;;;4974780;28;20140;-63
2021/08/22 04:05:05;;;;;;;5.10;4.07;;;20.10;75.90;;;;;;4983314;28;20035;-64
2021/08/22 04:07:30;;;;;;;4.60;4.10;;;20.20;76.00;;;;;;4979624;28;20053;-63
2021/08/22 04:09:57;;;;;;;5.00;4.45;;;20.20;76.00;;;;;;4977912;28;20509;-63
2021/08/22 04:12:23;;;;;;;5.10;4.28;;;20.20;76.00;;;;;;4965980;28;20379;-62
2021/08/22 04:14:48;;;;;;;9.77;4.43;;;20.20;76.00;;;;;;4976814;28;20031;-63
2021/08/22 04:17:14;;;;;;;6.97;4.80;;;20.20;76.10;;;;;;4972402;28;20038;-63
2021/08/22 04:19:42;;;;;;;5.47;4.15;;;20.20;76.10;;;;;;4974586;28;20042;-63
2021/08/22 04:22:08;;;;;;;5.20;4.70;;;20.20;76.10;;;;;;4979407;28;20055;-63
2021/08/22 04:24:35;;;;;;;6.28;4.57;;;20.20;76.10;;;;;;4971638;28;20030;-63
2021/08/22 04:27:02;;;;;;;5.70;4.60;;;20.20;76.20;;;;;;4976673;28;20038;-63
2021/08/22 04:29:28;;;;;;;5.30;4.80;;;20.20;76.20;;;;;;4972007;28;20054;-63
2021/08/22 04:31:54;;;;;;;5.70;5.13;;;20.30;76.30;;;;;;4977948;28;20038;-63
2021/08/22 04:34:21;;;;;;;6.55;5.07;;;20.30;76.50;;;;;;4970577;28;20473;-63
2021/08/22 04:36:47;;;;;;;7.95;6.15;;;20.30;76.80;;;;;;4968869;28;20049;-63
2021/08/22 04:39:13;;;;;;;7.30;6.15;;;20.30;76.90;;;;;;4973578;28;20564;-63
2021/08/22 04:41:43;;;;;;;7.30;6.30;;;20.30;77.20;;;;;;4976647;28;20108;-63
2021/08/22 04:44:09;;;;;;;6.57;5.88;;;20.30;77.70;;;;;;4976485;28;20034;-63
2021/08/22 04:46:35;;;;;;;6.07;5.47;;;20.30;77.40;;;;;;4969992;28;20054;-63
2021/08/22 04:49:00;;;;;;;7.65;5.90;;;20.30;77.50;;;;;;4969691;28;20078;-63
2021/08/22 04:51:26;;;;;;;6.40;5.80;;;20.40;77.70;;;;;;4972845;28;20038;-63
2021/08/22 04:53:52;;;;;;;8.40;5.72;;;20.40;77.80;;;;;;4967563;28;20447;-63
2021/08/22 04:56:17;;;;;;;6.72;5.32;;;20.40;77.90;;;;;;4967660;28;20090;-64
2021/08/22 04:58:44;;;;;;;7.40;5.88;;;20.40;78.00;;;;;;4978450;28;20078;-63
2021/08/22 05:01:09;;;;;;;7.28;5.47;;;20.40;78.90;;;;;;4974825;28;20030;-63
2021/08/22 05:03:35;;;;;;;5.95;5.32;;;20.40;77.90;;;;;;4974607;28;20096;-63
2021/08/22 05:06:00;;;;;;;7.85;5.60;;;20.50;78.00;;;;;;4967972;28;20537;-63
2021/08/22 05:08:26;;;;;;;6.07;5.47;;;20.40;78.00;;;;;;4976518;28;20049;-63
2021/08/22 05:10:55;;;;;;;9.25;5.60;;;20.40;79.10;;;;;;4988340;28;20708;-63
2021/08/22 05:13:22;;;;;;;5.57;5.07;;;20.50;78.50;;;;;;4974304;28;20114;-63
2021/08/22 05:15:50;;;;;;;5.93;5.18;;;20.50;78.30;;;;;;4995123;28;20042;-63
2021/08/22 05:18:19;;;;;;;6.07;5.47;;;20.50;78.30;;;;;;4967379;28;20035;-63
2021/08/22 05:20:44;;;;;;;5.43;4.75;;;20.50;78.30;;;;;;4969052;28;21053;-63
2021/08/22 05:23:11;;;;;;;5.57;4.82;;;20.50;78.30;;;;;;4982397;28;20034;-63
2021/08/22 05:25:36;;;;;;;6.10;4.93;;;20.50;78.10;;;;;;4978994;28;20035;-63
2021/08/22 05:28:02;;;;;;;5.40;4.90;;;20.50;78.10;;;;;;4971106;28;20045;-63
2021/08/22 05:30:27;;;;;;;5.35;4.65;;;20.50;78.00;;;;;;4976322;28;20127;-63
2021/08/22 05:32:53;;;;;;;5.63;5.00;;;20.50;78.00;;;;;;4967955;28;20113;-63
2021/08/22 05:35:19;;;;;;;5.03;4.45;;;20.60;77.90;;;;;;4969181;28;21862;-63
2021/08/22 05:37:44;;;;;;;4.80;4.22;;;20.60;77.80;;;;;;4970119;28;20065;-63
2021/08/22 05:40:10;;;;;;;5.07;4.40;;;20.60;77.60;;;;;;4976078;28;20030;-64
2021/08/22 05:42:36;;;;;;;22.77;19.58;;;20.60;77.50;;;;;;4979772;28;20529;-63
2021/08/22 05:45:02;;;;;;;12.05;10.75;;;20.60;77.40;;;;;;4979200;28;20030;-63
2021/08/22 05:47:28;;;;;;;6.70;5.28;;;20.70;77.50;;;;;;4976453;28;20039;-63
2021/08/22 05:49:54;;;;;;;5.18;4.72;;;20.70;77.50;;;;;;4980611;28;20023;-63
2021/08/22 05:52:19;;;;;;;4.47;3.80;;;20.70;77.40;;;;;;4972043;28;20369;-63
2021/08/22 05:54:45;;;;;;;4.40;3.80;;;20.70;77.20;;;;;;4976713;28;20118;-63
2021/08/22 05:57:11;;;;;;;4.82;4.05;;;20.80;77.10;;;;;;4978507;28;20058;-63
2021/08/22 05:59:36;;;;;;;4.72;3.95;;;20.80;76.90;;;;;;4977889;28;20035;-63
2021/08/22 06:02:02;;;;;;;4.78;3.78;;;20.80;76.80;;;;;;4969145;28;20038;-63
2021/08/22 06:04:28;;;;;;;4.05;3.65;;;20.80;76.70;;;;;;4980333;28;20034;-63
2021/08/22 06:06:54;;;;;;;7.40;6.70;;;20.80;76.50;;;;;;4973513;28;20041;-63
2021/08/22 06:09:19;;;;;;;13.02;9.40;;;20.80;76.40;;;;;;4972009;28;20046;-64
2021/08/22 06:11:45;;;;;;;31.63;22.27;;;20.80;76.30;;;;;;4971995;28;20665;-64
2021/08/22 06:14:11;;;;;;;16.02;11.95;;;20.90;76.20;;;;;;4981405;28;20066;-63
2021/08/22 06:16:36;;;;;;;17.88;12.85;;;20.90;76.10;;;;;;4983329;28;20050;-63
2021/08/22 06:19:02;;;;;;;14.15;10.88;;;20.90;76.10;;;;;;4979887;28;20052;-63
2021/08/22 06:21:28;;;;;;;9.90;8.90;;;20.90;76.10;;;;;;4969133;28;20034;-63
2021/08/22 06:23:57;;;;;;;5.78;5.22;;;20.90;76.00;;;;;;4973271;28;20396;-64
2021/08/22 06:26:25;;;;;;;8.20;7.50;;;20.90;76.00;;;;;;4949573;28;22602;-63
2021/08/22 06:28:51;;;;;;;5.25;4.75;;;20.90;76.00;;;;;;4952749;28;20124;-63
2021/08/22 06:31:16;;;;;;;4.45;4.05;;;20.90;76.00;;;;;;4954418;28;20082;-63
2021/08/22 06:33:42;;;;;;;3.97;3.58;;;20.90;76.00;;;;;;4966204;28;20138;-63
2021/08/22 06:36:08;;;;;;;7.75;7.05;;;20.90;76.00;;;;;;4955882;28;20066;-64
2021/08/22 06:38:34;;;;;;;4.35;3.83;;;20.90;76.00;;;;;;4955157;28;20041;-63
2021/08/22 06:40:59;;;;;;;4.93;3.22;;;20.90;76.00;;;;;;4953735;28;20626;-64
2021/08/22 06:43:25;;;;;;;4.13;2.92;;;21.00;76.90;;;;;;4952637;28;20034;-63
2021/08/22 06:45:51;;;;;;;2.97;2.78;;;21.00;76.00;;;;;;4964674;28;21043;-63
2021/08/22 06:48:17;;;;;;;3.17;2.90;;;21.00;76.10;;;;;;4967896;28;20085;-63
2021/08/22 06:50:43;;;;;;;3.20;2.80;;;21.00;76.10;;;;;;4954914;28;20529;-64
2021/08/22 06:53:09;;;;;;;4.30;2.67;;;21.00;76.10;;;;;;4953349;28;20045;-63
2021/08/22 06:55:34;;;;;;;3.35;2.60;;;21.10;77.40;;;;;;4952304;28;20042;-63
2021/08/22 06:58:01;;;;;;;3.35;2.47;;;21.10;76.30;;;;;;4955404;28;20039;-63
2021/08/22 07:00:26;;;;;;;2.70;2.50;;;21.10;76.20;;;;;;4951413;28;20039;-63
2021/08/22 07:02:52;;;;;;;3.83;3.42;;;21.20;76.30;;;;;;4958111;28;20100;-63
2021/08/22 07:05:17;;;;;;;11.07;9.82;;;21.20;76.20;;;;;;4957880;28;20034;-63
2021/08/22 07:07:43;;;;;;;8.65;7.18;;;21.30;76.30;;;;;;4952788;28;22287;-64
2021/08/22 07:10:10;;;;;;;5.68;4.85;;;21.30;76.20;;;;;;4957575;28;20030;-63
2021/08/22 07:12:36;;;;;;;4.38;3.80;;;21.40;76.20;;;;;;4966205;28;22682;-64
2021/08/22 07:15:02;;;;;;;3.15;2.80;;;21.50;76.00;;;;;;4953264;28;20053;-64
2021/08/22 07:17:27;;;;;;;3.00;2.80;;;21.50;75.60;;;;;;4961258;28;20073;-64
2021/08/22 07:19:53;;;;;;;3.25;2.92;;;21.60;75.60;;;;;;4965245;28;21332;-63
2021/08/22 07:22:18;;;;;;;4.00;3.70;;;21.60;75.50;;;;;;4969595;28;20042;-64
2021/08/22 07:24:45;;;;;;;3.15;2.78;;;21.70;75.60;;;;;;4958479;28;20125;-63
2021/08/22 07:27:10;;;;;;;3.85;2.95;;;21.70;75.50;;;;;;4956986;28;20049;-63
2021/08/22 07:29:36;;;;;;;3.25;2.95;;;21.80;75.10;;;;;;4969627;28;20046;-64
2021/08/22 07:32:03;;;;;;;4.18;2.80;;;21.80;75.80;;;;;;4971130;28;20845;-64
2021/08/22 07:34:29;;;;;;;3.25;2.80;;;21.90;74.70;;;;;;4960151;28;20043;-64
2021/08/22 07:36:54;;;;;;;3.08;2.78;;;21.90;74.40;;;;;;4953959;28;20127;-64
2021/08/22 07:39:20;;;;;;;3.13;2.83;;;21.90;74.40;;;;;;4950748;28;20221;-64
2021/08/22 07:41:45;;;;;;;4.03;2.45;;;22.00;74.40;;;;;;4952999;28;20038;-64
2021/08/22 07:44:11;;;;;;;2.67;2.47;;;22.00;74.20;;;;;;4954803;28;20158;-64
2021/08/22 07:46:37;;;;;;;2.85;2.65;;;22.10;74.10;;;;;;4973554;28;20066;-63
2021/08/22 07:49:02;;;;;;;3.28;2.97;;;22.10;73.70;;;;;;4983746;28;20046;-63
2021/08/22 07:51:28;;;;;;;3.88;3.00;;;22.10;73.40;;;;;;4998105;28;20031;-63
2021/08/22 07:53:54;;;;;;;3.60;3.08;;;22.20;73.10;;;;;;4979607;28;20035;-63
2021/08/22 07:56:19;;;;;;;3.30;2.85;;;22.20;72.80;;;;;;4981551;28;20085;-63
2021/08/22 07:58:45;;;;;;;3.28;2.97;;;22.20;72.80;;;;;;4995063;28;20661;-63
2021/08/22 08:01:10;;;;;;;3.03;2.75;;;22.20;72.50;;;;;;4982905;28;20034;-64
2021/08/22 08:03:36;;;;;;;3.13;2.83;;;22.20;72.10;;;;;;5000003;28;20125;-63
2021/08/22 08:06:02;;;;;;;3.38;3.08;;;22.20;72.10;;;;;;4985262;28;20085;-64
2021/08/22 08:08:28;;;;;;;3.85;2.92;;;22.20;72.10;;;;;;4983490;28;20509;-64
2021/08/22 08:10:53;;;;;;;3.28;2.95;;;22.20;72.10;;;;;;4992264;28;20065;-64
2021/08/22 08:13:19;;;;;;;3.60;2.85;;;22.30;72.20;;;;;;4984672;28;20585;-63
2021/08/22 08:15:44;;;;;;;3.45;3.03;;;22.30;72.40;;;;;;4981843;28;20122;-64
2021/08/22 08:18:10;;;;;;;3.08;2.50;;;22.30;71.70;;;;;;4984504;28;20027;-63
2021/08/22 08:20:36;;;;;;;3.30;2.90;;;22.30;70.50;;;;;;4982962;28;20078;-63
2021/08/22 08:23:03;;;;;;;3.10;2.78;;;22.30;70.90;;;;;;4983486;28;20054;-63
2021/08/22 08:25:29;;;;;;;4.07;3.03;;;22.30;70.90;;;;;;4983133;28;20030;-64
2021/08/22 08:27:55;;;;;;;3.00;2.70;;;22.30;71.00;;;;;;4981814;28;20096;-63
2021/08/22 08:30:21;;;;;;;3.42;3.03;;;22.30;71.10;;;;;;4978390;28;20046;-64
2021/08/22 08:32:46;;;;;;;4.40;3.30;;;22.40;71.20;;;;;;4983788;28;20042;-64
2021/08/22 08:35:12;;;;;;;3.35;2.88;;;22.40;70.80;;;;;;4984056;28;20093;-63
2021/08/22 08:37:39;;;;;;;3.35;3.05;;;22.40;70.80;;;;;;4985506;28;20043;-63
2021/08/22 08:40:11;;;;;;;3.22;2.90;;;22.50;70.90;;;;;;4986929;28;20030;-63
2021/08/22 08:42:43;;;;;;;3.90;3.05;;;22.50;70.90;;;;;;4987631;28;20057;-64
2021/08/22 08:45:15;;;;;;;3.53;3.22;;;22.50;70.70;;;;;;4985160;28;20026;-63
2021/08/22 08:47:41;;;;;;;4.55;2.95;;;22.60;70.80;;;;;;4979733;28;20084;-63
2021/08/22 08:50:10;;;;;;;3.33;2.90;;;22.70;71.10;;;;;;4980550;28;20399;-63
2021/08/22 08:52:44;;;;;;;3.33;3.03;;;22.70;70.70;;;;;;4987260;28;20086;-64
2021/08/22 08:55:13;;;;;;;4.10;3.20;;;22.80;70.60;;;;;;5001540;28;20030;-63
2021/08/22 08:57:39;;;;;;;3.42;3.13;;;22.80;71.00;;;;;;4977672;28;20027;-64
2021/08/22 09:00:28;;;;;;;3.55;3.22;;;22.80;70.10;;;;;;4982529;28;20041;-64
2021/08/22 09:02:55;;;;;;;4.82;3.40;;;22.90;70.00;;;;;;4997051;28;20027;-64
2021/08/22 09:05:26;;;;;;;4.95;3.65;;;23.00;69.90;;;;;;4986949;28;20445;-64
2021/08/22 09:08:03;;;;;;;3.63;3.28;;;23.00;70.30;;;;;;5002929;28;20035;-64
2021/08/22 09:10:56;;;;;;;3.33;3.03;;;23.00;69.30;;;;;;4991216;28;20442;-63
2021/08/22 09:13:31;;;;;;;5.90;4.28;;;23.00;68.30;;;;;;4985082;28;20418;-64
2021/08/22 09:16:53;;;;;;;3.97;3.67;;;23.10;68.00;;;;;;4987248;28;20117;-64
2021/08/22 09:19:55;;;;;;;4.35;3.75;;;23.00;67.60;;;;;;4961504;28;20134;-64
2021/08/22 09:22:42;;;;;;;3.58;2.88;;;23.10;67.90;;;;;;4965027;28;20053;-63
2021/08/22 09:25:39;;;;;;;4.68;3.38;;;23.10;68.00;;;;;;4977778;28;20045;-64
2021/08/22 09:28:26;;;;;;;3.38;3.03;;;23.10;68.00;;;;;;4994849;28;20552;-64
2021/08/22 09:31:29;;;;;;;4.97;3.42;;;23.10;68.10;;;;;;4985768;28;20609;-63
2021/08/22 09:34:26;;;;;;;3.15;2.95;;;23.10;67.60;;;;;;4981926;28;20042;-64
2021/08/22 09:37:07;;;;;;;4.28;2.95;;;23.20;67.50;;;;;;4986892;28;20058;-64
2021/08/22 09:40:17;;;;;;;3.25;2.97;;;23.20;67.50;;;;;;4986538;28;20042;-64
2021/08/22 09:43:06;;;;;;;3.15;2.90;;;23.20;67.90;;;;;;4985085;28;20042;-64
2021/08/22 09:46:00;;;;;;;3.20;2.83;;;23.20;67.40;;;;;;5001594;28;20109;-64
2021/08/22 09:49:03;;;;;;;3.00;2.72;;;23.20;67.30;;;;;;4979824;28;20085;-63
2021/08/22 09:51:47;;;;;;;2.97;2.78;;;23.30;67.10;;;;;;4987533;28;20413;-64
2021/08/22 09:54:25;;;;;;;2.83;2.63;;;23.30;66.70;;;;;;4986727;28;20037;-64
2021/08/22 09:57:32;;;;;;;3.17;2.88;;;23.30;66.90;;;;;;4984707;28;20038;-64
2021/08/22 10:00:46;;;;;;;3.15;2.85;;;23.40;67.00;;;;;;4980052;28;20089;-64
2021/08/22 10:03:49;;;;;;;3.13;2.83;;;23.40;66.70;;;;;;4981167;28;20030;-64
2021/08/22 10:06:35;;;;;;;4.28;2.70;;;23.40;66.00;;;;;;4984166;28;20751;-64
2021/08/22 10:09:05;;;;;;;;;;;23.40;66.90;;;;;;4980873;28;20113;-64
2021/08/22 10:11:49;;;;;;;2.95;2.75;;;23.50;67.00;;;;;;4980637;28;20281;-64
2021/08/22 10:14:15;;;;;;;3.33;2.70;;;23.50;67.10;;;;;;4978177;28;20078;-64
2021/08/22 10:16:41;;;;;;;3.35;2.80;;;23.60;66.90;;;;;;4983055;28;20046;-63
2021/08/22 10:19:08;;;;;;;3.20;2.90;;;23.50;66.20;;;;;;4981533;28;20148;-64
2021/08/22 10:21:35;;;;;;;2.88;2.65;;;23.60;66.50;;;;;;4987467;28;20085;-64
2021/08/22 10:24:34;;;;;;;3.10;2.80;;;23.60;66.70;;;;;;4985953;28;20513;-64
2021/08/22 10:27:00;;;;;;;2.83;2.63;;;23.60;66.50;;;;;;4986804;28;20065;-64
2021/08/22 10:29:30;;;;;;;3.35;2.92;;;23.60;66.60;;;;;;4978769;28;20061;-64
2021/08/22 10:31:55;;;;;;;3.03;2.80;;;23.60;66.30;;;;;;4986586;28;20041;-64
2021/08/22 10:34:24;;;;;;;3.05;2.67;;;23.70;66.40;;;;;;4987427;28;20038;-64
2021/08/22 10:36:51;;;;;;;2.95;2.65;;;23.70;66.60;;;;;;4986759;28;20041;-64
2021/08/22 10:39:23;;;;;;;4.80;2.97;;;23.70;66.30;;;;;;4987768;28;20092;-64
2021/08/22 10:41:58;;;;;;;2.60;2.40;;;23.80;65.90;;;;;;4987845;28;20452;-64
2021/08/22 10:44:36;;;;;;;3.08;2.83;;;23.80;66.30;;;;;;4985951;28;20034;-64
2021/08/22 10:47:12;;;;;;;3.05;2.85;;;23.80;66.00;;;;;;4985028;28;20410;-64
2021/08/22 10:49:50;;;;;;;2.85;2.65;;;23.90;66.10;;;;;;4982387;28;20046;-64
2021/08/22 10:52:21;;;;;;;3.42;2.80;;;24.00;65.30;;;;;;5000511;28;20045;-64
2021/08/22 10:55:10;;;;;;;2.72;2.53;;;24.00;65.30;;;;;;4980868;28;20056;-64
2021/08/22 10:57:45;;;;;;;2.80;2.50;;;24.10;64.70;;;;;;4983069;28;20026;-64
2021/08/22 11:00:22;;;;;;;2.95;2.75;;;24.10;64.50;;;;;;4995812;28;20057;-64
2021/08/22 11:02:49;;;;;;;2.78;2.58;;;24.10;64.60;;;;;;4998057;28;20119;-64
2021/08/22 11:05:16;;;;;;;2.65;2.45;;;24.20;65.00;;;;;;4982880;28;20034;-64
2021/08/22 11:07:52;;;;;;;3.00;2.70;;;24.20;64.70;;;;;;4985696;28;20534;-64
2021/08/22 11:10:28;;;;;;;3.80;2.60;;;24.20;64.20;;;;;;4983970;28;20043;-64
2021/08/22 11:12:54;;;;;;;2.80;2.60;;;24.20;64.50;;;;;;4984686;28;20058;-64
2021/08/22 11:15:25;;;;;;;2.60;2.30;;;24.20;64.00;;;;;;4985366;28;20073;-64
2021/08/22 11:18:04;;;;;;;2.72;2.38;;;24.20;63.80;;;;;;4984398;28;20141;-64
2021/08/22 11:20:31;;;;;;;2.35;2.15;;;24.10;64.00;;;;;;4997958;28;20037;-64
2021/08/22 11:23:05;;;;;;;2.83;2.63;;;24.10;64.70;;;;;;4977223;28;21052;-64
2021/08/22 11:25:32;;;;;;;2.60;2.40;;;24.10;63.50;;;;;;4983692;28;20613;-64
2021/08/22 11:28:11;;;;;;;2.92;2.72;;;24.00;64.30;;;;;;4983671;28;20085;-64
2021/08/22 11:30:38;;;;;;;2.75;2.55;;;24.00;64.30;;;;;;4964807;28;20366;-64
2021/08/22 11:33:04;;;;;;;2.88;2.67;;;24.00;64.50;;;;;;4991315;28;20034;-64
2021/08/22 11:35:30;;;;;;;2.53;2.33;;;24.00;65.00;;;;;;4977793;28;20037;-64
2021/08/22 11:38:00;;;;;;;2.80;2.60;;;24.00;65.50;;;;;;4979247;28;20034;-64
2021/08/22 11:40:27;;;;;;;2.75;2.55;;;24.00;65.20;;;;;;4990424;28;20453;-64
2021/08/22 11:42:59;;;;;;;4.13;2.70;;;23.90;65.10;;;;;;4984508;28;20085;-64
2021/08/22 11:45:28;;;;;;;3.35;2.58;;;23.90;66.90;;;;;;4999048;28;20502;-63
2021/08/22 11:47:55;;;;;;;2.63;2.40;;;23.80;67.40;;;;;;4981879;28;20097;-63
2021/08/22 11:50:30;;;;;;;2.88;2.58;;;23.80;67.30;;;;;;4981153;28;20065;-63
2021/08/22 11:52:57;;;;;;;2.60;2.40;;;23.80;67.80;;;;;;4983826;28;20089;-63
2021/08/22 11:55:31;;;;;;;2.75;2.55;;;23.80;67.80;;;;;;4993464;28;20034;-63
2021/08/22 11:58:12;;;;;;;3.10;2.38;;;23.80;68.30;;;;;;4986193;28;20038;-63
2021/08/22 12:00:40;;;;;;;2.60;2.40;;;23.80;68.00;;;;;;4983094;28;20037;-63
2021/08/22 12:03:11;;;;;;;3.22;2.88;;;23.90;67.80;;;;;;4984035;28;20076;-63
2021/08/22 12:05:54;;;;;;;2.85;2.65;;;23.80;67.90;;;;;;4981223;28;20037;-64
2021/08/22 12:08:21;;;;;;;2.70;2.50;;;23.90;68.00;;;;;;4982343;28;20418;-63
2021/08/22 12:10:47;;;;;;;2.88;2.67;;;23.90;67.80;;;;;;4978963;28;20043;-63
2021/08/22 12:13:15;;;;;;;3.05;2.78;;;23.80;67.60;;;;;;4988217;28;20058;-64
2021/08/22 12:15:41;;;;;;;3.17;2.88;;;23.90;67.30;;;;;;4988447;28;20034;-63
2021/08/22 12:18:16;;;;;;;3.38;2.50;;;23.80;67.30;;;;;;4998859;28;20104;-64
2021/08/22 12:20:46;;;;;;;2.75;2.55;;;23.90;66.80;;;;;;4981783;28;20050;-63
2021/08/22 12:23:12;;;;;;;4.13;3.20;;;23.90;66.90;;;;;;4986171;28;20058;-63
2021/08/22 12:25:40;;;;;;;3.00;2.80;;;23.90;67.30;;;;;;4980139;28;20039;-63
2021/08/22 12:28:28;;;;;;;2.67;2.47;;;23.90;66.50;;;;;;4980645;28;20031;-64
2021/08/22 12:31:02;;;;;;;2.63;2.42;;;23.80;66.60;;;;;;4985557;28;20041;-64
2021/08/22 12:33:36;;;;;;;2.65;2.45;;;23.70;66.50;;;;;;4988495;28;20505;-64
2021/08/22 12:36:05;;;;;;;2.47;2.27;;;23.60;66.60;;;;;;4993613;28;20081;-64
2021/08/22 12:38:52;;;;;;;2.72;2.45;;;23.50;66.40;;;;;;4986282;28;20038;-63
2021/08/22 12:41:25;;;;;;;2.35;2.15;;;23.40;67.20;;;;;;4986647;28;20058;-63
2021/08/22 12:43:51;;;;;;;2.53;2.33;;;23.40;67.40;;;;;;4996684;28;20088;-63
2021/08/22 12:46:17;;;;;;;2.47;2.33;;;23.30;67.40;;;;;;4988592;28;20030;-63
2021/08/22 12:48:44;;;;;;;2.80;2.60;;;23.20;68.10;;;;;;4985314;28;20050;-63
2021/08/22 12:51:10;;;;;;;2.67;2.47;;;23.20;68.60;;;;;;4994619;28;20037;-63
2021/08/22 12:53:36;;;;;;;3.25;2.45;;;23.20;68.70;;;;;;4983670;28;20112;-63
2021/08/22 12:56:03;;;;;;;2.65;2.40;;;23.20;69.00;;;;;;4986379;28;20042;-63
2021/08/22 12:58:28;;;;;;;5.40;2.58;;;23.20;69.10;;;;;;4983817;28;20421;-64